Urupa, Brazil
Current Conditions -  °F | °C
As of 10:00 PM on Wednesday 26 Nov 2014 (Local Time) from SBVH Reporting Station
Thunderstorm Thunderstorm  
Wind Chill: 73°   Ceiling: 1500
Heat Index: 73°   Visibility: 6mi
Dew Point: 72°   Wind: 9mph
Humidity: 94%   Direction: 240°WSW
Pressure: NA   Gusts: NA
Location:  11.14°S, 62.36°W
Report Text: SBVH 270200Z 24008KT 9999 -TSRA BKN015 FEW020CB SCT080 23/22 Q1014
Loading
Personal Weather Stations






























Interactive Weather Map New forecast layout! Learn more

10-Day Weather Forecast

Advertisements
Track Severe Weather on mobile